Terminal Aerodrome Forecast
Issued by NWS Bismarck, ND

Home | Current Version | Previous Version | Graphics & Text | Print | Product List | Glossary On
Versions: 1 2 3 4 5 6 7 8 9 10 11 12
000
FTUS43 KBIS 232328
TAFISN
TAF
KISN 232328Z 2400/2424 15008KT P6SM FEW250
     FM240900 17009KT P6SM SCT250 WS020/18040KT
     FM241200 16017G24KT P6SM SCT250
     FM241900 17021G30KT P6SM BKN110=

USA.gov is the U.S. government's official web portal to all federal, state and local government web resources and services.